Date,TemperatureHighF,TemperatureAvgF,TemperatureLowF,DewpointHighF,DewpointAvgF,DewpointLowF,HumidityHigh,HumidityAvg,HumidityLow,PressureMaxIn,PressureMinIn,WindSpeedMaxMPH,WindSpeedAvgMPH,GustSpeedMaxMPH,PrecipitationSumIn
2013-7-1,59.7,54.1,50.7,51.0,49.7,47.1,96,86,66,30.01,29.75,3,0,0,0.00
2013-7-2,61.5,54.2,46.0,51.9,47.8,44.1,94,80,58,30.06,29.76,4,1,0,0.10
2013-7-3,64.2,55.1,48.7,50.0,47.8,45.7,95,78,53,30.19,30.06,2,0,0,0.00
2013-7-4,56.8,52.5,49.1,50.4,48.7,47.3,96,87,73,30.23,30.17,2,0,0,0.06
2013-7-5,65.1,55.8,48.0,51.3,48.1,43.9,95,77,52,30.28,30.20,3,0,0,0.01
2013-7-6,61.9,53.9,49.6,54.1,50.7,47.9,97,89,61,30.22,29.93,2,0,0,0.05
2013-7-7,66.0,55.5,46.2,52.5,48.8,45.0,97,80,56,29.93,29.74,8,1,0,0.00
2013-7-8,62.2,53.5,49.3,50.0,48.0,46.1,95,83,57,30.00,29.84,4,1,0,0.05
2013-7-9,66.0,57.1,48.0,49.7,47.8,46.4,95,73,51,30.21,30.00,5,2,0,0.00
2013-7-10,72.9,61.1,51.8,54.5,50.9,46.8,94,71,46,30.22,30.08,4,1,0,0.00
2013-7-11,76.1,65.3,53.8,53.5,52.2,50.5,91,65,42,30.10,30.03,4,1,0,0.00
2013-7-12,79.2,64.6,50.4,55.3,51.5,48.0,94,66,43,30.15,30.03,7,1,0,0.00
2013-7-13,74.7,65.0,54.1,56.1,52.7,50.0,93,67,46,30.33,30.12,5,1,0,0.01
2013-7-14,67.1,59.7,49.6,53.7,51.1,47.7,95,74,60,30.48,30.34,5,2,0,0.00
2013-7-15,63.0,58.6,55.0,53.4,50.8,48.6,88,75,66,30.51,30.41,4,1,0,0.00
2013-7-16,68.5,60.9,54.0,55.1,53.0,51.3,96,76,59,30.42,30.29,6,1,0,0.00
2013-7-17,72.3,64.1,56.7,58.3,55.4,52.9,89,74,58,30.31,30.22,3,1,0,0.00
2013-7-18,74.7,65.5,56.3,59.6,56.8,54.0,92,75,56,30.31,30.24,4,1,0,0.00
2013-7-19,71.8,64.5,58.1,58.2,54.5,52.8,90,71,53,30.34,30.25,5,1,0,0.00
2013-7-20,72.0,63.1,55.4,54.9,51.5,45.0,90,68,43,30.30,30.20,8,2,0,0.02
2013-7-21,78.8,65.2,51.1,51.0,47.7,42.7,73,55,35,30.23,30.07,5,2,0,0.00
2013-7-22,81.0,67.0,50.5,52.3,48.2,43.2,80,53,35,30.23,30.12,5,2,0,0.00
2013-7-23,78.6,65.8,52.5,56.8,50.7,46.5,81,61,39,30.28,30.16,5,1,0,0.00
2013-7-24,81.1,67.3,51.6,58.3,53.0,47.8,91,63,39,30.20,30.05,5,1,0,0.00
2013-7-25,77.9,68.2,59.7,58.6,56.3,53.1,89,67,50,30.21,30.09,5,1,0,0.00
2013-7-26,72.1,64.2,58.6,58.1,56.4,54.0,90,76,60,30.47,30.21,6,2,0,0.00
2013-7-27,73.0,64.8,58.6,58.7,55.9,54.0,87,74,57,30.53,30.45,3,1,0,0.00
2013-7-28,75.9,66.8,59.9,60.0,56.9,54.1,86,71,55,30.47,30.30,3,1,0,0.00
2013-7-29,75.6,65.4,54.0,58.8,56.7,52.6,97,75,56,30.36,30.28,4,1,0,0.00
2013-7-30,75.9,65.5,53.8,58.4,56.1,52.3,96,73,54,30.39,30.30,5,1,0,0.00
2013-7-31,74.1,64.0,54.7,57.8,55.0,50.6,95,74,55,30.38,30.27,4,1,0,0.00